Time;durP1;ratioP1;P1;durP2;ratioP2;P2;SDS_P1;SDS_P2;PMS_P1;PMS_P2;Temp;Humidity;BMP_temperature;BMP_pressure;BME280_temperature;BME280_humidity;BME280_pressure;Samples;Min_cycle;Max_cycle;Signal;HPM_P1;HPM_P2
2023/09/28 00:00:44;;;;;;;7.07;3.60;;;;;;;20.01;100.00;100783.06;5092543;28;20096;-72
2023/09/28 00:03:10;;;;;;;8.05;3.65;;;;;;;19.67;100.00;100765.13;5093714;28;20548;-71
2023/09/28 00:05:36;;;;;;;10.30;3.78;;;;;;;19.52;100.00;100734.97;5093400;28;20032;-73
2023/09/28 00:08:01;;;;;;;12.20;3.63;;;;;;;19.80;100.00;100727.44;5093636;28;20043;-72
2023/09/28 00:10:46;;;;;;;6.50;3.13;;;;;;;20.37;100.00;100826.78;5093415;28;20028;-71
2023/09/28 00:13:11;;;;;;;8.93;3.70;;;;;;;19.98;100.00;100782.41;5093832;28;20115;-70
2023/09/28 00:18:39;;;;;;;12.93;4.05;;;;;;;20.13;100.00;100812.56;5093411;28;20578;-73
2023/09/28 00:24:09;;;;;;;11.80;3.70;;;;;;;19.93;100.00;100758.59;5094304;28;20124;-73
2023/09/28 00:26:36;;;;;;;7.00;3.40;;;;;;;19.67;100.00;100752.22;5074988;28;20035;-72
2023/09/28 00:29:02;;;;;;;10.48;3.80;;;;;;;19.88;100.00;100761.44;5075314;28;20387;-72
2023/09/28 00:31:28;;;;;;;9.40;3.42;;;;;;;19.79;100.00;100779.97;5093517;28;20020;-73
2023/09/28 00:33:53;;;;;;;8.65;3.63;;;;;;;19.86;100.00;100758.09;5092791;28;20051;-69
2023/09/28 00:36:19;;;;;;;10.25;3.80;;;;;;;19.89;100.00;100768.25;5093520;28;20024;-73
2023/09/28 00:39:03;;;;;;;8.90;3.88;;;;;;;19.54;100.00;100754.63;5092710;28;20550;-73
2023/09/28 00:41:28;;;;;;;11.43;4.00;;;;;;;19.64;100.00;100750.66;5093108;28;20106;-72
2023/09/28 00:43:55;;;;;;;10.93;3.88;;;;;;;19.97;100.00;100815.13;5093422;28;20049;-73
2023/09/28 00:46:20;;;;;;;13.35;4.38;;;;;;;19.41;100.00;100729.56;5093446;28;20039;-73
2023/09/28 00:48:58;;;;;;;13.60;4.57;;;;;;;19.42;100.00;100767.31;5093180;28;20031;-73
2023/09/28 00:51:26;;;;;;;11.45;3.95;;;;;;;19.99;100.00;100805.56;5093548;28;20024;-73
2023/09/28 00:53:52;;;;;;;8.82;3.78;;;;;;;19.73;100.00;100803.50;5075108;28;20028;-73
2023/09/28 00:56:18;;;;;;;11.18;4.35;;;;;;;19.65;100.00;100757.47;5092831;28;20031;-73
2023/09/28 00:58:48;;;;;;;9.43;3.88;;;;;;;20.10;100.00;100811.00;5074533;28;20035;-73
2023/09/28 01:01:14;;;;;;;8.93;3.97;;;;;;;20.12;100.00;100813.50;5092353;28;20054;-72
2023/09/28 01:03:39;;;;;;;10.63;3.90;;;;;;;19.95;100.00;100827.28;5074230;28;20035;-72
2023/09/28 01:08:49;;;;;;;8.55;3.90;;;;;;;19.54;100.00;100762.38;5092839;28;20035;-73
2023/09/28 01:11:14;;;;;;;11.60;4.10;;;;;;;19.40;100.00;100748.53;5091795;28;20036;-73
2023/09/28 01:13:40;;;;;;;11.57;3.95;;;;;;;19.89;100.00;100825.88;5092557;28;20032;-73
2023/09/28 01:16:05;;;;;;;11.27;4.18;;;;;;;19.75;100.00;100802.53;5074274;28;20027;-73
2023/09/28 01:18:49;;;;;;;11.70;3.70;;;;;;;19.68;100.00;100814.09;5092377;28;20024;-73
2023/09/28 01:21:14;;;;;;;9.90;3.88;;;;;;;19.76;100.00;100809.38;5092390;28;20549;-73
2023/09/28 01:26:30;;;;;;;11.20;4.10;;;;;;;19.81;100.00;100806.53;5092767;28;20038;-71
2023/09/28 01:28:56;;;;;;;6.82;4.18;;;;;;;19.79;100.00;100808.34;5092379;28;20036;-73
2023/09/28 01:31:40;;;;;;;6.82;3.85;;;;;;;19.70;100.00;100808.84;5092322;28;20027;-73
2023/09/28 01:37:08;;;;;;;12.50;3.58;;;;;;;19.97;100.00;100816.88;5092175;28;20035;-75
2023/09/28 01:39:52;;;;;;;9.75;4.22;;;;;;;19.59;100.00;100764.72;5092283;28;20745;-73
2023/09/28 01:42:18;;;;;;;8.38;4.22;;;;;;;19.91;100.00;100838.69;5092190;28;20031;-70
2023/09/28 01:44:43;;;;;;;9.85;4.07;;;;;;;19.79;100.00;100834.16;5073688;28;20035;-72
2023/09/28 01:47:08;;;;;;;9.82;3.95;;;;;;;19.60;100.00;100820.56;5073803;28;20530;-72
2023/09/28 01:49:52;;;;;;;8.13;4.10;;;;;;;19.58;100.00;100840.44;5091890;28;20039;-71
2023/09/28 01:52:18;;;;;;;9.27;4.50;;;;;;;19.04;100.00;100782.13;5090595;28;20076;-72
2023/09/28 01:54:43;;;;;;;7.78;3.78;;;;;;;19.63;100.00;100835.91;5091914;28;20031;-73
2023/09/28 01:57:27;;;;;;;8.27;4.00;;;;;;;19.19;100.00;100835.53;5091868;28;20406;-73
2023/09/28 02:00:15;;;;;;;10.68;4.25;;;;;;;19.54;100.00;100849.25;5091954;28;20027;-73
2023/09/28 02:02:43;;;;;;;9.25;4.43;;;;;;;19.69;100.00;100838.97;5090469;28;20394;-72
2023/09/28 02:05:08;;;;;;;11.80;5.13;;;;;;;19.28;100.00;100857.44;5091532;28;20032;-72
2023/09/28 02:07:36;;;;;;;10.10;4.20;;;;;;;19.26;100.00;100860.09;5073523;28;20077;-73
2023/09/28 02:10:20;;;;;;;11.85;4.28;;;;;;;19.01;100.00;100814.03;5091687;28;20020;-72
2023/09/28 02:13:04;;;;;;;9.73;4.20;;;;;;;19.45;100.00;100885.84;5091422;28;20444;-73
2023/09/28 02:15:30;;;;;;;10.30;4.20;;;;;;;19.08;100.00;100870.47;5092212;28;20035;-73
2023/09/28 02:17:55;;;;;;;8.15;4.05;;;;;;;18.83;100.00;100825.28;5091226;28;20032;-73
2023/09/28 02:20:23;;;;;;;12.10;4.57;;;;;;;19.06;100.00;100893.75;5090891;28;20043;-75
2023/09/28 02:22:52;;;;;;;8.73;4.38;;;;;;;19.26;100.00;100892.78;5090632;28;20032;-75
2023/09/28 02:25:55;;;;;;;11.68;4.97;;;;;;;19.13;100.00;100926.06;5091196;28;20161;-75
2023/09/28 02:28:39;;;;;;;10.77;4.80;;;;;;;18.38;100.00;100860.06;5092118;28;20059;-77
2023/09/28 02:31:06;;;;;;;11.57;5.40;;;;;;;18.93;100.00;100933.91;5090803;28;20027;-74
2023/09/28 02:36:16;;;;;;;14.50;5.28;;;;;;;18.80;100.00;100953.41;5091401;28;20043;-73
2023/09/28 02:39:00;;;;;;;10.95;4.90;;;;;;;18.71;100.00;100969.31;5083331;28;20032;-74
2023/09/28 02:41:44;;;;;;;13.88;5.00;;;;;;;18.41;100.00;100955.19;5071077;28;20040;-71
2023/09/28 02:44:09;;;;;;;9.70;4.55;;;;;;;18.53;100.00;100891.13;5071192;28;20052;-73
2023/09/28 02:46:53;;;;;;;11.43;5.15;;;;;;;18.88;100.00;100941.84;5071289;28;20104;-73
2023/09/28 02:49:20;;;;;;;10.93;4.95;;;;;;;18.72;100.00;100960.66;5071392;28;20047;-74
2023/09/28 02:51:46;;;;;;;13.10;4.93;;;;;;;18.43;100.00;100892.44;5071201;28;20233;-73
2023/09/28 02:54:11;;;;;;;11.10;5.18;;;;;;;18.45;100.00;100894.94;5071066;28;20020;-74
2023/09/28 02:56:37;;;;;;;14.43;4.97;;;;;;;18.34;100.00;100897.16;5070777;28;20025;-74
2023/09/28 02:59:02;;;;;;;11.57;4.75;;;;;;;18.47;100.00;100916.31;5071329;28;20119;-74
2023/09/28 03:01:29;;;;;;;8.20;5.05;;;;;;;18.93;100.00;100964.84;5071097;28;20449;-74
2023/09/28 03:03:54;;;;;;;10.30;4.53;;;;;;;18.99;100.00;100975.69;5070942;28;20021;-73
2023/09/28 03:06:39;;;;;;;10.38;4.78;;;;;;;18.55;100.00;100989.78;5070435;28;20094;-73
2023/09/28 03:09:06;;;;;;;15.82;4.70;;;;;;;18.67;100.00;100989.22;5070571;28;20025;-75
2023/09/28 03:11:50;;;;;;;11.25;4.85;;;;;;;18.45;100.00;100937.00;5070998;28;20090;-74
2023/09/28 03:14:16;;;;;;;12.50;5.05;;;;;;;18.47;100.00;100953.22;5070884;28;20032;-74
2023/09/28 03:16:42;;;;;;;10.68;5.18;;;;;;;18.47;100.00;101040.78;5070544;28;20509;-73
2023/09/28 03:19:26;;;;;;;11.95;5.80;;;;;;;18.81;100.00;101042.72;5052473;28;20121;-72
2023/09/28 03:21:53;;;;;;;12.95;5.43;;;;;;;18.87;100.00;101055.31;5079170;28;20102;-73
2023/09/28 03:24:19;;;;;;;14.40;6.00;;;;;;;18.30;100.00;101022.63;5079100;28;20033;-73
2023/09/28 03:29:28;;;;;;;17.70;6.57;;;;;;;18.77;100.00;101085.81;5070283;28;20458;-73
2023/09/28 03:32:12;;;;;;;17.33;6.35;;;;;;;18.87;100.00;101138.66;5086604;28;20024;-73
2023/09/28 03:34:37;;;;;;;16.40;7.25;;;;;;;18.76;100.00;101130.53;5060392;28;20076;-76
2023/09/28 03:39:49;;;;;;;24.33;9.93;;;;;;;18.96;100.00;101165.75;5095525;28;20043;-76
2023/09/28 03:42:14;;;;;;;14.00;7.97;;;;;;;19.04;100.00;101164.50;5095471;28;20028;-75
2023/09/28 03:44:39;;;;;;;16.58;8.18;;;;;;;18.87;100.00;101174.72;5094000;28;20035;-76
2023/09/28 03:47:05;;;;;;;18.92;8.48;;;;;;;18.80;100.00;101137.22;5093180;28;20032;-73
2023/09/28 03:49:30;;;;;;;18.05;8.95;;;;;;;18.78;100.00;101125.28;5094550;28;20024;-72
2023/09/28 03:51:56;;;;;;;20.40;6.13;;;;;;;18.67;100.00;101132.66;5093444;28;20418;-76
2023/09/28 03:57:05;;;;;;;15.23;5.78;;;;;;;19.03;100.00;101120.75;5094090;28;20521;-74
2023/09/28 03:59:31;;;;;;;15.50;5.45;;;;;;;19.45;100.00;101172.19;5075663;28;20116;-75
2023/09/28 04:01:56;;;;;;;9.65;5.05;;;;;;;20.31;100.00;101153.44;5074135;28;20033;-70
2023/09/28 04:04:21;;;;;;;11.43;5.10;;;;;;;21.05;100.00;101187.63;5112929;28;20071;-70
2023/09/28 04:06:48;;;;;;;16.42;5.13;;;;;;;19.76;100.00;101144.06;5112906;28;20504;-75
2023/09/28 04:09:32;;;;;;;9.52;4.95;;;;;;;19.76;100.00;101144.91;5113600;28;20180;-78
2023/09/28 04:14:42;;;;;;;16.15;4.80;;;;;;;19.78;100.00;101131.91;5114259;28;20104;-74
2023/09/28 04:17:08;;;;;;;12.30;5.00;;;;;;;19.72;100.00;101124.47;5114509;28;20773;-74
2023/09/28 04:19:33;;;;;;;13.27;5.03;;;;;;;19.71;100.00;101117.63;5096527;28;20027;-73
2023/09/28 04:21:59;;;;;;;14.07;5.18;;;;;;;19.89;100.00;101135.66;5095658;28;20036;-76
2023/09/28 04:24:24;;;;;;;23.15;5.70;;;;;;;20.30;100.00;101122.53;5114242;28;20485;-71
2023/09/28 04:26:50;;;;;;;13.90;5.22;;;;;;;19.88;100.00;101112.50;5112821;28;20050;-73
2023/09/28 04:29:16;;;;;;;19.55;5.53;;;;;;;19.30;100.00;101018.09;5113923;28;20031;-74
2023/09/28 04:32:01;;;;;;;15.82;4.80;;;;;;;19.88;100.00;101113.34;5111679;28;20421;-75
2023/09/28 04:34:26;;;;;;;13.02;4.60;;;;;;;19.78;100.00;101086.31;5085599;28;20040;-74
2023/09/28 04:36:52;;;;;;;12.23;5.43;;;;;;;19.72;100.00;101103.81;5055043;28;20135;-74
2023/09/28 04:39:18;;;;;;;15.70;6.55;;;;;;;19.34;100.00;101084.97;5072624;28;20111;-73
2023/09/28 04:41:44;;;;;;;23.20;6.15;;;;;;;19.40;100.00;101060.63;5073336;28;20060;-75
2023/09/28 04:44:28;;;;;;;15.73;5.53;;;;;;;20.14;100.00;101124.16;5072913;28;20033;-75
2023/09/28 04:46:54;;;;;;;13.13;5.00;;;;;;;19.97;100.00;101104.31;5072095;28;20119;-74
2023/09/28 04:49:38;;;;;;;11.25;4.68;;;;;;;20.09;100.00;101100.28;5093284;28;20115;-74
2023/09/28 04:52:03;;;;;;;11.88;4.72;;;;;;;19.96;100.00;101050.16;5090581;28;20063;-74
2023/09/28 04:54:29;;;;;;;15.25;5.10;;;;;;;20.36;100.00;101094.63;5093251;28;20052;-73
2023/09/28 04:56:55;;;;;;;11.65;4.80;;;;;;;20.11;100.00;101070.91;5092940;28;20028;-73
2023/09/28 04:59:20;;;;;;;14.95;5.22;;;;;;;20.12;100.00;101072.59;5092706;28;20028;-76
2023/09/28 05:01:47;;;;;;;11.05;4.90;;;;;;;19.67;100.00;100979.31;5092274;28;20027;-75
2023/09/28 05:04:12;;;;;;;16.60;5.10;;;;;;;20.13;100.00;101055.31;5091616;28;20692;-74
2023/09/28 05:09:23;;;;;;;23.90;6.65;;;;;;;20.19;100.00;101018.88;5091371;28;20097;-73
2023/09/28 05:11:48;;;;;;;13.38;5.18;;;;;;;20.30;100.00;101063.91;5091112;28;20040;-74
2023/09/28 05:14:14;;;;;;;10.68;5.25;;;;;;;20.23;100.00;101046.22;5090925;28;20467;-74
2023/09/28 05:16:39;;;;;;;13.40;4.93;;;;;;;20.04;100.00;100994.66;5091883;28;20131;-73
2023/09/28 05:19:04;;;;;;;13.75;5.20;;;;;;;20.41;100.00;101051.31;5092879;28;20027;-75
2023/09/28 05:24:14;;;;;;;12.50;5.47;;;;;;;20.52;100.00;101053.34;5092850;28;20062;-74
2023/09/28 05:26:40;;;;;;;19.48;5.28;;;;;;;20.34;100.00;101011.19;5074582;28;20549;-75
2023/09/28 05:29:05;;;;;;;16.85;5.65;;;;;;;20.51;100.00;101010.31;5074622;28;20032;-74
2023/09/28 05:31:30;;;;;;;12.10;4.95;;;;;;;20.54;100.00;101043.78;5074641;28;20055;-74
2023/09/28 05:33:56;;;;;;;12.18;4.90;;;;;;;20.51;100.00;101018.91;5091800;28;20052;-74
2023/09/28 05:36:22;;;;;;;10.60;5.07;;;;;;;20.91;100.00;101035.75;5091000;28;20024;-74
2023/09/28 05:38:47;;;;;;;13.57;5.10;;;;;;;20.67;100.00;100998.25;5091713;28;20114;-73
2023/09/28 05:41:12;;;;;;;7.20;4.88;;;;;;;20.68;100.00;101005.94;5092406;28;20414;-74
2023/09/28 05:43:38;;;;;;;11.95;5.28;;;;;;;20.92;100.00;101039.16;5073828;28;20119;-73
2023/09/28 05:48:47;;;;;;;12.55;4.90;;;;;;;21.35;100.00;101034.16;5092148;28;20125;-73
2023/09/28 05:51:13;;;;;;;8.50;4.65;;;;;;;21.74;100.00;101041.47;5092130;28;20470;-76
2023/09/28 05:53:57;;;;;;;13.30;4.57;;;;;;;21.86;100.00;101027.00;5092176;28;20028;-75
2023/09/28 05:56:40;;;;;;;11.98;4.72;;;;;;;21.75;100.00;101017.22;5092206;28;20090;-76
2023/09/28 05:59:24;;;;;;;11.70;4.57;;;;;;;22.23;100.00;101003.19;5092142;28;20486;-75
2023/09/28 06:01:50;;;;;;;9.77;4.72;;;;;;;22.30;100.00;101007.09;5092170;28;20020;-75
2023/09/28 06:04:34;;;;;;;16.38;5.32;;;;;;;22.36;100.00;100999.78;5073165;28;20050;-73
2023/09/28 06:07:00;;;;;;;9.80;4.50;;;;;;;21.51;100.00;100882.28;5091629;28;20414;-73
2023/09/28 06:09:26;;;;;;;9.88;4.55;;;;;;;21.93;100.00;100941.06;5091766;28;20035;-74
2023/09/28 06:11:52;;;;;;;16.30;5.10;;;;;;;22.58;100.00;100981.19;5091905;28;20035;-74
2023/09/28 06:14:36;;;;;;;12.90;4.85;;;;;;;22.94;100.00;100957.31;5091673;28;20444;-73
2023/09/28 06:17:02;;;;;;;17.55;4.75;;;;;;;22.56;100.00;100901.81;5092030;28;20028;-74
2023/09/28 06:19:46;;;;;;;15.18;4.47;;;;;;;23.11;100.00;100955.31;5091439;28;20554;-73
2023/09/28 06:22:12;;;;;;;9.82;4.10;;;;;;;22.88;100.00;100887.66;5091483;28;20418;-74
2023/09/28 06:24:38;;;;;;;12.52;5.10;;;;;;;23.43;100.00;100916.94;5091538;28;20039;-74
2023/09/28 06:27:03;;;;;;;8.48;4.50;;;;;;;23.23;100.00;100907.78;5073117;28;20028;-75
2023/09/28 06:29:52;;;;;;;11.13;4.45;;;;;;;23.48;100.00;100890.63;5074080;28;20414;-75
2023/09/28 06:32:18;;;;;;;17.02;4.82;;;;;;;24.01;100.00;100874.84;5073688;28;20521;-75
2023/09/28 06:35:02;;;;;;;21.25;5.70;;;;;;;23.57;100.00;100851.09;5091535;28;20048;-74
2023/09/28 06:37:30;;;;;;;11.48;4.75;;;;;;;23.56;100.00;100844.22;5091366;28;20028;-75
2023/09/28 06:39:55;;;;;;;16.67;4.95;;;;;;;23.95;100.00;100855.31;5091339;28;20089;-74
2023/09/28 06:42:20;;;;;;;12.80;5.28;;;;;;;23.80;100.00;100860.72;5091991;28;20411;-75
2023/09/28 06:45:06;;;;;;;8.07;4.43;;;;;;;24.30;100.00;100849.44;5092006;28;20031;-74
2023/09/28 06:47:31;;;;;;;12.93;4.93;;;;;;;24.19;100.00;100784.38;5091463;28;20031;-76
2023/09/28 06:49:57;;;;;;;15.07;5.15;;;;;;;24.00;100.00;100787.44;5073421;28;20482;-74
2023/09/28 06:52:23;;;;;;;10.45;5.13;;;;;;;24.24;100.00;100849.88;5092083;28;20028;-75
2023/09/28 06:54:49;;;;;;;13.05;5.65;;;;;;;24.12;100.00;100794.38;5091913;28;20111;-72
2023/09/28 06:59:58;;;;;;;11.18;4.75;;;;;;;24.63;100.00;100834.84;5091321;28;20030;-72
2023/09/28 07:02:24;;;;;;;9.60;4.25;;;;;;;24.14;100.00;100765.69;5091235;28;20024;-74
2023/09/28 07:04:49;;;;;;;8.35;4.18;;;;;;;24.74;100.00;100844.53;5091844;28;20060;-72
2023/09/28 07:07:17;;;;;;;10.88;4.70;;;;;;;25.08;100.00;100838.47;5075365;28;20095;-74
2023/09/28 07:09:46;;;;;;;8.20;4.25;;;;;;;24.87;100.00;100837.47;5098077;28;20491;-74
2023/09/28 07:12:11;;;;;;;8.20;4.10;;;;;;;25.05;100.00;100830.91;5097247;28;20073;-75
2023/09/28 07:14:37;;;;;;;15.45;4.78;;;;;;;25.23;100.00;100832.16;5095961;28;20024;-75
2023/09/28 07:17:03;;;;;;;12.80;4.53;;;;;;;25.63;100.00;100806.53;5094961;28;20030;-75
2023/09/28 07:19:48;;;;;;;10.82;4.40;;;;;;;26.10;100.00;100839.34;5095802;28;20032;-76
2023/09/28 07:22:15;;;;;;;10.30;4.30;;;;;;;25.73;100.00;100842.16;5077585;28;20151;-74
2023/09/28 07:24:40;;;;;;;8.32;4.30;;;;;;;25.50;100.00;100793.63;5095259;28;20523;-77
2023/09/28 07:27:06;;;;;;;11.48;3.92;;;;;;;26.18;100.00;100790.88;5077228;28;20480;-74
2023/09/28 07:29:31;;;;;;;9.90;4.13;;;;;;;25.99;100.00;100801.03;5095090;28;20028;-75
2023/09/28 07:34:42;;;;;;;11.73;4.10;;;;;;;26.25;100.00;100825.09;5095186;28;20434;-75
2023/09/28 07:37:29;;;;;;;11.63;4.03;;;;;;;26.50;100.00;100867.34;5094120;28;20024;-75
2023/09/28 07:45:41;;;;;;;13.05;4.20;;;;;;;25.30;100.00;100867.19;5074753;28;20055;-75
2023/09/28 07:50:51;;;;;;;13.05;5.18;;;;;;;25.03;100.00;100829.34;5074301;28;20039;-75
2023/09/28 07:56:00;;;;;;;10.63;4.00;;;;;;;24.63;100.00;100863.47;5073835;28;20086;-74
2023/09/28 07:58:26;;;;;;;10.43;4.10;;;;;;;25.62;100.00;100876.06;5074370;28;20036;-74
2023/09/28 08:00:51;;;;;;;8.23;4.28;;;;;;;25.43;100.00;100809.84;5073719;28;20028;-74
2023/09/28 08:03:17;;;;;;;12.20;4.18;;;;;;;26.00;100.00;100867.91;5074262;28;20024;-75
2023/09/28 08:05:42;;;;;;;10.68;4.40;;;;;;;25.93;100.00;100798.13;5073633;28;20036;-75
2023/09/28 08:08:07;;;;;;;9.93;4.20;;;;;;;26.14;100.00;100820.75;5074042;28;20463;-73
2023/09/28 08:13:17;;;;;;;15.43;4.20;;;;;;;26.46;100.00;100826.00;5074137;28;20093;-76
2023/09/28 08:15:44;;;;;;;10.13;4.00;;;;;;;26.38;100.00;100826.63;5074100;28;20032;-73
2023/09/28 08:18:10;;;;;;;9.52;3.88;;;;;;;26.53;100.00;100770.59;5074397;28;20107;-75
2023/09/28 08:20:35;;;;;;;14.75;4.15;;;;;;;27.03;100.00;100881.34;5055077;28;20035;-77
2023/09/28 08:23:01;;;;;;;17.25;4.20;;;;;;;27.49;100.00;100880.16;5074206;28;20489;-77
2023/09/28 08:28:10;;;;;;;14.05;5.07;;;;;;;26.69;100.00;100898.03;5075195;28;20067;-79
2023/09/28 08:30:35;;;;;;;10.40;4.93;;;;;;;26.25;100.00;100861.59;5075068;28;20502;-80
2023/09/28 08:33:01;;;;;;;9.70;4.03;;;;;;;27.35;100.00;100873.50;5074427;28;20033;-79
2023/09/28 08:35:45;;;;;;;8.00;3.90;;;;;;;27.39;100.00;100873.09;5056599;28;20056;-77
2023/09/28 08:38:30;;;;;;;11.18;4.00;;;;;;;27.40;100.00;100890.44;5074677;28;20423;-80
2023/09/28 08:41:02;;;;;;;12.32;4.95;;;;;;;26.81;100.00;100847.50;5074338;28;20475;-81
2023/09/28 08:46:40;;;;;;;9.82;3.70;;;;;;;26.64;100.00;100897.59;5074173;28;20044;-78
2023/09/28 08:49:15;;;;;;;10.52;3.83;;;;;;;27.07;100.00;100833.13;5074571;28;20033;-79
2023/09/28 08:51:44;;;;;;;11.07;4.55;;;;;;;27.70;100.00;100891.44;5074317;28;20036;-78
2023/09/28 08:54:09;;;;;;;9.38;4.28;;;;;;;26.60;100.00;100890.97;5074241;28;20025;-79
2023/09/28 08:56:57;;;;;;;13.07;4.82;;;;;;;27.79;100.00;100881.00;5073811;28;20123;-80
2023/09/28 08:59:28;;;;;;;9.43;3.90;;;;;;;26.57;100.00;100889.41;5073799;28;20024;-81
2023/09/28 09:04:38;;;;;;;13.45;4.30;;;;;;;27.10;100.00;100840.69;5074680;28;20097;-82
2023/09/28 09:07:04;;;;;;;18.17;4.65;;;;;;;27.22;100.00;100893.69;5056636;28;20028;-83
2023/09/28 09:09:50;;;;;;;10.05;4.47;;;;;;;27.42;100.00;100891.13;5074160;28;20024;-81
2023/09/28 09:12:17;;;;;;;12.90;4.30;;;;;;;27.45;100.00;100884.84;5074791;28;20025;-84
2023/09/28 09:14:43;;;;;;;9.38;4.15;;;;;;;27.99;100.00;100881.97;5074158;28;20029;-83
2023/09/28 09:17:08;;;;;;;10.93;4.38;;;;;;;27.61;100.00;100879.16;5074355;28;20529;-80
2023/09/28 09:19:34;;;;;;;10.27;4.22;;;;;;;27.80;100.00;100858.31;5073988;28;20067;-80
2023/09/28 09:22:00;;;;;;;11.68;4.40;;;;;;;27.24;100.00;100823.88;5072784;28;20025;-80
2023/09/28 09:24:25;;;;;;;14.15;4.25;;;;;;;27.43;100.00;100808.34;5082930;28;20566;-76
2023/09/28 09:26:55;;;;;;;10.52;3.88;;;;;;;27.22;100.00;100896.31;4738330;28;9999701;-76
2023/09/28 09:29:22;;;;;;;12.13;4.10;;;;;;;27.83;100.00;100816.22;5089043;28;20101;-81
2023/09/28 09:31:49;;;;;;;7.95;3.40;;;;;;;27.28;100.00;100906.25;5072674;28;20131;-79
2023/09/28 09:34:19;;;;;;;18.00;3.88;;;;;;;27.23;100.00;100893.59;5089995;28;20044;-77
2023/09/28 09:36:55;;;;;;;9.00;3.67;;;;;;;26.34;100.00;100859.13;5090218;28;20035;-80
2023/09/28 09:39:25;;;;;;;11.23;3.90;;;;;;;26.70;100.00;100846.69;5089961;28;20059;-80
2023/09/28 09:41:54;;;;;;;10.17;4.37;;;;;;;26.21;100.00;100863.63;5090070;28;20047;-77
2023/09/28 09:44:39;;;;;;;12.82;4.03;;;;;;;26.77;100.00;100842.63;5071594;28;20406;-76
2023/09/28 09:47:04;;;;;;;10.27;4.05;;;;;;;27.17;100.00;100901.09;5083461;28;20407;-76
2023/09/28 09:49:31;;;;;;;11.00;3.90;;;;;;;27.10;100.00;100890.31;5070976;28;20073;-74
2023/09/28 09:52:02;;;;;;;10.43;3.75;;;;;;;27.26;100.00;100901.16;5093251;28;20032;-77
2023/09/28 09:54:29;;;;;;;9.93;3.90;;;;;;;26.40;100.00;100844.75;5092431;28;20059;-78
2023/09/28 09:56:58;;;;;;;11.82;4.20;;;;;;;26.17;100.00;100862.22;5074512;28;20024;-77
2023/09/28 09:59:44;;;;;;;11.25;4.07;;;;;;;26.61;100.00;100903.03;5092657;28;20115;-79
2023/09/28 10:02:29;;;;;;;8.50;3.97;;;;;;;26.74;100.00;100882.84;5074100;28;20035;-78
2023/09/28 10:07:58;;;;;;;9.02;3.70;;;;;;;26.31;100.00;100871.56;5093264;28;20042;-80
2023/09/28 10:10:27;;;;;;;9.85;4.00;;;;;;;26.31;100.00;100835.03;5093387;28;20089;-79
2023/09/28 10:13:11;;;;;;;9.80;3.65;;;;;;;26.56;100.00;100869.47;5092760;28;20032;-77
2023/09/28 10:15:37;;;;;;;11.70;4.00;;;;;;;26.44;100.00;100867.03;5092941;28;20032;-77
2023/09/28 10:18:04;;;;;;;9.65;3.72;;;;;;;26.90;100.00;100875.44;5092688;28;20039;-79
2023/09/28 10:20:30;;;;;;;10.60;4.07;;;;;;;26.16;100.00;100813.63;5092174;28;20035;-79
2023/09/28 10:22:56;;;;;;;11.00;3.78;;;;;;;26.43;100.00;100797.53;5092347;28;20046;-78
2023/09/28 10:28:07;;;;;;;13.35;4.15;;;;;;;26.69;100.00;100811.06;5112936;28;20066;-77
2023/09/28 10:30:32;;;;;;;14.60;3.63;;;;;;;26.32;100.00;100814.06;5096751;28;20092;-78
2023/09/28 10:33:09;;;;;;;10.57;3.97;;;;;;;26.44;100.00;100880.09;5094195;28;20035;-80
2023/09/28 10:35:35;;;;;;;10.52;3.60;;;;;;;25.79;100.00;100771.34;5071725;28;20065;-74
2023/09/28 10:38:22;;;;;;;8.52;3.38;;;;;;;26.30;100.00;100825.56;5073072;28;20036;-80
2023/09/28 10:40:57;;;;;;;12.43;3.40;;;;;;;26.32;100.00;100805.41;5073079;28;20507;-80
2023/09/28 10:49:31;;;;;;;12.63;3.90;;;;;;;26.25;100.00;100805.06;5071976;28;20093;-81
2023/09/28 10:54:59;;;;;;;9.45;4.07;;;;;;;26.37;100.00;100800.63;5072732;28;20035;-80
2023/09/28 10:57:31;;;;;;;9.35;3.90;;;;;;;26.45;100.00;100811.28;5072586;28;20032;-78
2023/09/28 11:00:20;;;;;;;10.77;3.83;;;;;;;26.68;100.00;100861.63;5072730;28;20507;-78
2023/09/28 11:02:46;;;;;;;8.15;3.78;;;;;;;26.29;100.00;100834.31;5072751;28;20074;-80
2023/09/28 11:05:12;;;;;;;9.75;3.85;;;;;;;26.42;100.00;100794.09;5072643;28;20052;-80
2023/09/28 11:10:23;;;;;;;9.63;3.75;;;;;;;26.78;100.00;100798.13;5072461;28;20035;-81
2023/09/28 11:12:49;;;;;;;8.90;3.83;;;;;;;26.13;100.00;100761.72;5072304;28;20499;-78
2023/09/28 11:15:14;;;;;;;14.95;4.40;;;;;;;26.95;100.00;100830.69;5072358;28;20035;-77
2023/09/28 11:17:41;;;;;;;9.05;3.45;;;;;;;26.64;100.00;100853.22;5071231;28;20098;-78
2023/09/28 11:20:13;;;;;;;9.32;3.38;;;;;;;26.32;100.00;100808.03;5071221;28;20040;-79
2023/09/28 11:22:39;;;;;;;10.05;3.60;;;;;;;26.54;100.00;100836.66;5072226;28;20061;-77
2023/09/28 11:25:06;;;;;;;9.80;3.67;;;;;;;26.66;100.00;100851.31;5070898;28;20025;-78
2023/09/28 11:27:31;;;;;;;13.27;4.22;;;;;;;26.62;100.00;100852.53;5071338;28;20524;-76
2023/09/28 11:29:58;;;;;;;9.70;3.65;;;;;;;26.29;100.00;100762.13;5070900;28;20144;-78
2023/09/28 11:32:42;;;;;;;9.77;3.85;;;;;;;26.28;100.00;100814.44;5070812;28;20025;-79
2023/09/28 11:35:07;;;;;;;10.60;3.83;;;;;;;26.53;100.00;100855.84;5088401;28;20502;-79
2023/09/28 11:40:54;;;;;;;7.75;3.75;;;;;;;26.40;100.00;100863.00;5092156;28;20067;-80
2023/09/28 11:43:20;;;;;;;9.02;4.00;;;;;;;26.67;100.00;100857.34;5091976;28;20028;-81
2023/09/28 11:45:47;;;;;;;9.02;3.72;;;;;;;26.78;100.00;100857.38;5092064;28;20028;-80
2023/09/28 11:48:16;;;;;;;8.00;3.50;;;;;;;26.30;100.00;100828.19;5092104;28;20028;-80
2023/09/28 11:50:42;;;;;;;7.13;3.60;;;;;;;26.47;100.00;100846.75;5091844;28;20024;-80
2023/09/28 11:53:10;;;;;;;7.85;3.80;;;;;;;26.36;100.00;100862.44;5092039;28;20099;-80
2023/09/28 11:55:38;;;;;;;8.63;3.60;;;;;;;26.19;100.00;100857.72;5093044;28;20093;-80
2023/09/28 11:58:06;;;;;;;9.40;3.90;;;;;;;25.99;100.00;100797.63;5077409;28;20050;-78
2023/09/28 12:00:31;;;;;;;9.48;3.50;;;;;;;25.90;100.00;100800.94;5094813;28;20043;-74
2023/09/28 12:02:57;;;;;;;9.63;4.00;;;;;;;26.33;100.00;100823.53;5095003;28;20032;-76
2023/09/28 12:05:22;;;;;;;11.10;3.83;;;;;;;25.77;100.00;100806.28;5077495;28;20028;-76
2023/09/28 12:10:32;;;;;;;10.05;3.90;;;;;;;26.01;100.00;100856.50;5095153;28;20042;-76
2023/09/28 12:13:16;;;;;;;12.18;3.53;;;;;;;25.99;100.00;100871.44;5095024;28;20028;-79
2023/09/28 12:18:44;;;;;;;9.05;3.70;;;;;;;25.73;100.00;100803.09;5095370;28;20063;-77
2023/09/28 12:21:09;;;;;;;10.73;3.60;;;;;;;25.71;100.00;100802.38;5095032;28;20115;-79
2023/09/28 12:23:35;;;;;;;11.48;3.92;;;;;;;25.54;100.00;100808.06;5094711;28;20040;-79
2023/09/28 12:26:01;;;;;;;11.27;3.83;;;;;;;25.70;100.00;100838.97;5095221;28;20032;-77
2023/09/28 12:28:27;;;;;;;10.13;3.63;;;;;;;25.89;100.00;100864.47;5095127;28;20032;-78
2023/09/28 12:30:53;;;;;;;11.65;4.05;;;;;;;25.72;100.00;100861.38;5076700;28;20024;-78
2023/09/28 12:33:18;;;;;;;9.65;3.40;;;;;;;25.76;100.00;100854.97;5094287;28;20087;-78
2023/09/28 12:36:22;;;;;;;16.20;3.58;;;;;;;25.77;100.00;100864.44;5094592;28;20040;-78
2023/09/28 12:38:51;;;;;;;8.45;4.03;;;;;;;25.43;100.00;100836.69;5094338;28;20031;-78
2023/09/28 12:41:17;;;;;;;14.90;3.92;;;;;;;25.06;100.00;100797.91;5076893;28;20119;-78
2023/09/28 12:44:02;;;;;;;15.32;4.05;;;;;;;25.41;100.00;100861.22;5076659;28;20024;-78
2023/09/28 12:46:27;;;;;;;11.20;3.72;;;;;;;25.04;100.00;100802.41;5076213;28;20494;-78
2023/09/28 12:48:55;;;;;;;12.50;4.32;;;;;;;25.39;100.00;100850.06;5094550;28;20086;-80
2023/09/28 12:54:23;;;;;;;12.60;3.80;;;;;;;25.03;100.00;100804.16;5095177;28;20043;-77
2023/09/28 12:56:51;;;;;;;8.35;3.60;;;;;;;24.60;100.00;100749.22;5094867;28;20173;-76